Terminal Aerodrome Forecast
Issued by NWS

Home | Current Version | Previous Version | Text Only | Print | Product List | Glossary On
Versions: 1 2 3 4 5 6 7 8 9 10 11 12 13 14 15 16 17 18 19 20 21 22 23 24 25
000
FTUS41 KBTV 220725 AAD
TAFSLK
TAF AMD
KSLK 220725Z 2207/2306 06005KT 1/2SM FG OVC001
      TEMPO 2207/2211 2SM BR OVC002
     FM221100 05007KT 2SM BR OVC004
     FM221800 05008KT 2SM -RA BR OVC007
     FM230000 05008KT 1SM -RA BR OVC004=

USA.gov is the U.S. government's official web portal to all federal, state and local government web resources and services.